Time;durP1;ratioP1;P1;durP2;ratioP2;P2;SDS_P1;SDS_P2;PMS_P1;PMS_P2;Temp;Humidity;BMP_temperature;BMP_pressure;BME280_temperature;BME280_humidity;BME280_pressure;Samples;Min_cycle;Max_cycle;Signal;HPM_P1;HPM_P2
2022/04/25 00:01:15;;;;;;;0.30;0.30;;;10.00;99.90;;;;;;5055769;28;20170;-68
2022/04/25 00:03:41;;;;;;;0.30;0.30;;;10.10;99.90;;;;;;5055783;28;20166;-67
2022/04/25 00:06:07;;;;;;;0.30;0.30;;;10.10;99.90;;;;;;5055925;28;20261;-68
2022/04/25 00:08:33;;;;;;;0.30;0.30;;;10.10;99.90;;;;;;5055700;28;20193;-68
2022/04/25 00:10:58;;;;;;;0.30;0.30;;;10.00;99.90;;;;;;5055617;28;20443;-67
2022/04/25 00:13:24;;;;;;;0.30;0.30;;;9.90;99.90;;;;;;5056107;28;20216;-67
2022/04/25 00:15:50;;;;;;;0.30;0.30;;;9.90;99.90;;;;;;5055781;28;20174;-68
2022/04/25 00:18:15;;;;;;;0.30;0.30;;;9.90;99.90;;;;;;5055750;28;20259;-67
2022/04/25 00:20:41;;;;;;;0.30;0.30;;;9.90;99.90;;;;;;5055259;28;20207;-67
2022/04/25 00:23:07;;;;;;;0.30;0.30;;;9.90;99.90;;;;;;5055631;28;20180;-68
2022/04/25 00:25:34;;;;;;;0.30;0.30;;;9.90;99.90;;;;;;5055666;28;20185;-67
2022/04/25 00:28:01;;;;;;;0.30;0.30;;;9.90;99.90;;;;;;5055303;28;20634;-68
2022/04/25 00:30:28;;;;;;;0.30;0.30;;;9.90;99.90;;;;;;5055154;28;20194;-68
2022/04/25 00:32:55;;;;;;;0.30;0.30;;;9.90;99.90;;;;;;5055439;28;20178;-67
2022/04/25 00:35:21;;;;;;;0.30;0.30;;;9.90;99.90;;;;;;5055416;28;20178;-67
2022/04/25 00:37:46;;;;;;;0.30;0.30;;;10.00;99.90;;;;;;5055465;28;20285;-68
2022/04/25 00:40:12;;;;;;;0.30;0.30;;;10.00;99.90;;;;;;5055118;28;20852;-67
2022/04/25 00:42:38;;;;;;;0.30;0.30;;;10.10;99.90;;;;;;5055096;28;20178;-67
2022/04/25 00:45:05;;;;;;;0.30;0.30;;;10.00;99.90;;;;;;5054883;28;20225;-66
2022/04/25 00:47:31;;;;;;;0.30;0.30;;;10.10;99.90;;;;;;5055134;28;20208;-68
2022/04/25 00:49:56;;;;;;;0.30;0.30;;;10.10;99.90;;;;;;5054756;28;20616;-67
2022/04/25 00:52:22;;;;;;;0.30;0.30;;;10.10;99.90;;;;;;5055168;28;20170;-68
2022/04/25 00:54:48;;;;;;;0.30;0.30;;;10.10;99.90;;;;;;5055040;28;20170;-67
2022/04/25 00:57:15;;;;;;;0.30;0.30;;;10.10;99.90;;;;;;5054735;28;20202;-67
2022/04/25 00:59:42;;;;;;;0.30;0.30;;;10.10;99.90;;;;;;5054775;28;20228;-68
2022/04/25 01:02:08;;;;;;;0.30;0.30;;;10.10;99.90;;;;;;5054673;28;20183;-68
2022/04/25 01:04:34;;;;;;;0.30;0.30;;;10.10;99.90;;;;;;5053539;28;20170;-67
2022/04/25 01:07:00;;;;;;;0.30;0.30;;;10.10;99.90;;;;;;5054807;28;20252;-68
2022/04/25 01:09:25;;;;;;;0.30;0.30;;;10.00;99.90;;;;;;5054759;28;20678;-68
2022/04/25 01:11:52;;;;;;;0.30;0.30;;;9.90;99.90;;;;;;5054482;28;20249;-67
2022/04/25 01:14:20;;;;;;;0.30;0.30;;;9.90;99.90;;;;;;5054552;28;20174;-69
2022/04/25 01:16:47;;;;;;;0.30;0.30;;;10.00;99.90;;;;;;5054487;28;20178;-68
2022/04/25 01:19:14;;;;;;;0.30;0.30;;;10.00;99.90;;;;;;5054383;28;20281;-69
2022/04/25 01:22:06;;;;;;;0.30;0.30;;;10.00;99.90;;;;;;5054013;28;20190;-68
2022/04/25 01:27:17;;;;;;;0.30;0.30;;;9.90;99.90;;;;;;5054795;28;20190;-68
2022/04/25 01:29:53;;;;;;;0.30;0.30;;;10.00;99.90;;;;;;5054259;28;20198;-67
2022/04/25 01:32:22;;;;;;;0.30;0.30;;;10.00;99.90;;;;;;5054433;28;20950;-67
2022/04/25 01:34:48;;;;;;;0.30;0.30;;;10.00;99.90;;;;;;5054155;28;20555;-68
2022/04/25 01:37:15;;;;;;;0.30;0.30;;;9.90;99.90;;;;;;5054032;28;20224;-68
2022/04/25 01:39:49;;;;;;;0.30;0.30;;;9.80;99.90;;;;;;5053999;28;20197;-68
2022/04/25 01:42:16;;;;;;;0.30;0.30;;;9.90;99.90;;;;;;5054269;28;20631;-68
2022/04/25 01:44:42;;;;;;;0.30;0.30;;;9.90;99.90;;;;;;5054160;28;20232;-68
2022/04/25 01:47:08;;;;;;;0.30;0.30;;;9.90;99.90;;;;;;5054110;28;20234;-68
2022/04/25 01:49:35;;;;;;;0.30;0.30;;;9.90;99.90;;;;;;5053823;28;20554;-68
2022/04/25 01:52:12;;;;;;;0.30;0.30;;;9.90;99.90;;;;;;5053759;28;20408;-68
2022/04/25 01:54:38;;;;;;;0.30;0.30;;;9.90;99.90;;;;;;5053952;28;20181;-68
2022/04/25 01:57:03;;;;;;;0.30;0.30;;;9.80;99.90;;;;;;5053911;28;20243;-68
2022/04/25 01:59:30;;;;;;;0.30;0.30;;;9.80;99.90;;;;;;5053643;28;20186;-67
2022/04/25 02:01:56;;;;;;;0.30;0.30;;;9.80;99.90;;;;;;5053584;28;20623;-68
2022/04/25 02:04:22;;;;;;;0.30;0.30;;;9.80;99.90;;;;;;5053822;28;20559;-68
2022/04/25 02:06:49;;;;;;;0.30;0.30;;;9.70;99.90;;;;;;5053418;28;20174;-68
2022/04/25 02:09:14;;;;;;;0.30;0.30;;;9.70;99.90;;;;;;5053595;28;20435;-68
2022/04/25 02:11:40;;;;;;;0.40;0.40;;;9.70;99.90;;;;;;5053614;28;20627;-68
2022/04/25 02:14:06;;;;;;;0.30;0.30;;;9.80;99.90;;;;;;5053715;28;20503;-68
2022/04/25 02:16:31;;;;;;;0.30;0.30;;;9.70;99.90;;;;;;5053736;28;20162;-67
2022/04/25 02:18:57;;;;;;;0.30;0.30;;;9.90;99.90;;;;;;5053303;28;20213;-68
2022/04/25 02:21:23;;;;;;;0.30;0.30;;;9.90;99.90;;;;;;5053190;28;20185;-68
2022/04/25 02:23:49;;;;;;;0.30;0.30;;;9.90;99.90;;;;;;5053564;28;20631;-68
2022/04/25 02:26:15;;;;;;;0.30;0.30;;;9.90;99.90;;;;;;5052227;28;20178;-68
2022/04/25 02:28:40;;;;;;;0.30;0.30;;;10.00;99.90;;;;;;5052246;28;20269;-68
2022/04/25 02:31:07;;;;;;;0.30;0.30;;;9.90;99.90;;;;;;5053331;28;20170;-68
2022/04/25 02:33:35;;;;;;;0.30;0.30;;;9.90;99.90;;;;;;5053507;28;20537;-69
2022/04/25 02:36:04;;;;;;;0.30;0.30;;;9.90;99.90;;;;;;5053413;28;20174;-68
2022/04/25 02:38:31;;;;;;;0.30;0.30;;;9.90;99.90;;;;;;5053290;28;20624;-68
2022/04/25 02:41:06;;;;;;;0.30;0.30;;;9.90;99.90;;;;;;5053136;28;20201;-68
2022/04/25 02:43:35;;;;;;;0.30;0.30;;;9.90;99.90;;;;;;5053255;28;20158;-67
2022/04/25 02:46:02;;;;;;;0.30;0.30;;;9.90;99.90;;;;;;5053237;28;20166;-68
2022/04/25 02:48:29;;;;;;;0.30;0.30;;;9.90;99.90;;;;;;5053321;28;20178;-67
2022/04/25 02:50:55;;;;;;;0.30;0.30;;;10.00;99.90;;;;;;5053141;28;20175;-68
2022/04/25 02:53:24;;;;;;;0.30;0.30;;;10.00;99.90;;;;;;5053306;28;20287;-68
2022/04/25 02:55:51;;;;;;;0.30;0.30;;;9.90;99.90;;;;;;5053282;28;20173;-68
2022/04/25 02:58:17;;;;;;;0.30;0.30;;;9.90;99.90;;;;;;5053264;28;20202;-68
2022/04/25 03:00:45;;;;;;;0.30;0.30;;;9.90;99.90;;;;;;5053055;28;20183;-67
2022/04/25 03:03:15;;;;;;;0.30;0.30;;;9.90;99.90;;;;;;5053173;28;20639;-69
2022/04/25 03:05:43;;;;;;;0.30;0.30;;;9.90;99.90;;;;;;5053258;28;20518;-68
2022/04/25 03:08:11;;;;;;;0.30;0.30;;;9.90;99.90;;;;;;5053142;28;20261;-67
2022/04/25 03:10:37;;;;;;;0.30;0.30;;;10.00;99.90;;;;;;5052745;28;20201;-68
2022/04/25 03:13:07;;;;;;;0.75;0.75;;;9.90;99.90;;;;;;5053218;28;20173;-68
2022/04/25 03:15:34;;;;;;;0.30;0.30;;;9.80;99.90;;;;;;5053315;28;20627;-67
2022/04/25 03:18:01;;;;;;;0.30;0.30;;;9.80;99.90;;;;;;5053059;28;20208;-67
2022/04/25 03:20:28;;;;;;;0.30;0.30;;;9.80;99.90;;;;;;5056074;28;20194;-68
2022/04/25 03:22:56;;;;;;;0.30;0.30;;;9.90;99.90;;;;;;5056463;28;20197;-67
2022/04/25 03:25:22;;;;;;;0.30;0.30;;;9.90;99.90;;;;;;5056559;28;20246;-68
2022/04/25 03:27:48;;;;;;;0.40;0.40;;;9.90;99.90;;;;;;5056742;28;20220;-67
2022/04/25 03:30:13;;;;;;;0.30;0.30;;;9.90;99.90;;;;;;5056345;28;20431;-67
2022/04/25 03:32:46;;;;;;;0.30;0.30;;;9.90;99.90;;;;;;5056520;28;20661;-68
2022/04/25 03:35:17;;;;;;;0.30;0.30;;;9.90;99.90;;;;;;5056660;28;20166;-68
2022/04/25 03:37:44;;;;;;;1.25;1.25;;;9.90;99.90;;;;;;5056273;28;20201;-68
2022/04/25 03:40:10;;;;;;;0.30;0.30;;;9.70;99.90;;;;;;5054837;28;20604;-68
2022/04/25 03:42:40;;;;;;;1.15;1.10;;;9.60;99.90;;;;;;5056370;28;20257;-69
2022/04/25 03:45:11;;;;;;;0.30;0.30;;;9.60;99.90;;;;;;5056288;28;20312;-68
2022/04/25 03:47:37;;;;;;;0.30;0.30;;;9.60;99.90;;;;;;5056342;28;20261;-68
2022/04/25 03:50:05;;;;;;;0.30;0.30;;;9.50;99.90;;;;;;5055774;28;20202;-68
2022/04/25 03:52:30;;;;;;;0.30;0.30;;;9.50;99.90;;;;;;5056050;28;20183;-68
2022/04/25 03:57:40;;;;;;;0.30;0.30;;;9.50;99.90;;;;;;5056047;28;20301;-67
2022/04/25 04:00:07;;;;;;;0.30;0.30;;;9.50;99.90;;;;;;5055947;28;20187;-68
2022/04/25 04:02:33;;;;;;;0.30;0.30;;;9.50;99.90;;;;;;5054726;28;20178;-68
2022/04/25 04:05:00;;;;;;;0.30;0.30;;;9.50;99.90;;;;;;5054587;28;20270;-68
2022/04/25 04:07:26;;;;;;;0.30;0.30;;;9.60;99.90;;;;;;5055855;28;20177;-67
2022/04/25 04:09:52;;;;;;;0.30;0.30;;;9.60;99.90;;;;;;5055504;28;20307;-68
2022/04/25 04:12:19;;;;;;;0.30;0.30;;;9.60;99.90;;;;;;5055810;28;20185;-68
2022/04/25 04:14:46;;;;;;;0.30;0.30;;;9.60;99.90;;;;;;5055925;28;20162;-68
2022/04/25 04:17:12;;;;;;;0.30;0.30;;;9.60;99.90;;;;;;5055519;28;20198;-69
2022/04/25 04:19:38;;;;;;;0.30;0.30;;;9.60;99.90;;;;;;5055663;28;20197;-67
2022/04/25 04:22:05;;;;;;;0.77;0.75;;;9.60;99.90;;;;;;5055350;28;20205;-68
2022/04/25 04:24:32;;;;;;;0.30;0.30;;;9.60;99.90;;;;;;5055672;28;20166;-67
2022/04/25 04:27:01;;;;;;;0.30;0.30;;;9.50;99.90;;;;;;5055724;28;20181;-67
2022/04/25 04:29:29;;;;;;;0.30;0.30;;;9.50;99.90;;;;;;5055188;28;20198;-68
2022/04/25 04:32:02;;;;;;;0.30;0.30;;;9.50;99.90;;;;;;5055202;28;20170;-67
2022/04/25 04:34:29;;;;;;;0.30;0.30;;;9.50;99.90;;;;;;5055361;28;20174;-68
2022/04/25 04:36:55;;;;;;;0.30;0.30;;;9.40;99.90;;;;;;5055252;28;20227;-67
2022/04/25 04:39:21;;;;;;;0.30;0.30;;;9.40;99.90;;;;;;5055180;28;20536;-68
2022/04/25 04:41:47;;;;;;;0.30;0.30;;;9.40;99.90;;;;;;5055217;28;20408;-67
2022/04/25 04:44:13;;;;;;;0.30;0.30;;;9.40;99.90;;;;;;5055233;28;20623;-67
2022/04/25 04:46:39;;;;;;;0.30;0.30;;;9.40;99.90;;;;;;5055056;28;20172;-67
2022/04/25 04:49:05;;;;;;;0.30;0.30;;;9.40;99.90;;;;;;5054959;28;20190;-67
2022/04/25 04:51:31;;;;;;;0.30;0.30;;;9.40;99.90;;;;;;5053624;28;20905;-68
2022/04/25 04:53:59;;;;;;;0.40;0.40;;;9.30;99.90;;;;;;5055215;28;20170;-67
2022/04/25 04:56:35;;;;;;;0.30;0.30;;;9.30;99.90;;;;;;5054814;28;20198;-67
2022/04/25 04:59:01;;;;;;;0.30;0.30;;;9.30;99.90;;;;;;5054698;28;20213;-67
2022/04/25 05:01:26;;;;;;;0.30;0.30;;;9.30;99.90;;;;;;5054635;28;20634;-67
2022/04/25 05:03:58;;;;;;;0.30;0.30;;;9.30;99.90;;;;;;5055008;28;20393;-68
2022/04/25 05:06:26;;;;;;;0.30;0.30;;;9.20;99.90;;;;;;5054875;28;20393;-67
2022/04/25 05:08:52;;;;;;;0.30;0.30;;;9.10;99.90;;;;;;5054685;28;20186;-68
2022/04/25 05:11:17;;;;;;;0.30;0.30;;;9.20;99.90;;;;;;5054382;28;20178;-68
2022/04/25 05:13:43;;;;;;;0.30;0.30;;;9.20;99.90;;;;;;5054523;28;20469;-68
2022/04/25 05:16:08;;;;;;;0.30;0.30;;;9.30;99.90;;;;;;5054683;28;20174;-68
2022/04/25 05:18:34;;;;;;;0.30;0.30;;;9.20;99.90;;;;;;5054385;28;20206;-67
2022/04/25 05:21:01;;;;;;;0.40;0.40;;;9.40;99.90;;;;;;5054080;28;20235;-67
2022/04/25 05:23:27;;;;;;;0.30;0.30;;;9.20;99.90;;;;;;5054691;28;20535;-67
2022/04/25 05:25:54;;;;;;;0.40;0.40;;;9.30;99.90;;;;;;5054345;28;20170;-68
2022/04/25 05:28:21;;;;;;;0.30;0.30;;;9.40;99.90;;;;;;5054646;28;20408;-67
2022/04/25 05:30:47;;;;;;;0.45;0.45;;;9.50;99.90;;;;;;5054044;28;20239;-68
2022/04/25 05:33:13;;;;;;;0.30;0.30;;;9.70;99.90;;;;;;5054395;28;20169;-68
2022/04/25 05:35:39;;;;;;;0.30;0.30;;;9.80;99.90;;;;;;5054234;28;20541;-68
2022/04/25 05:38:10;;;;;;;0.30;0.30;;;10.10;99.90;;;;;;5054182;28;20476;-69
2022/04/25 05:40:36;;;;;;;0.50;0.50;;;10.30;99.90;;;;;;5053814;28;20417;-68
2022/04/25 05:43:03;;;;;;;0.30;0.30;;;10.50;99.90;;;;;;5053352;28;20170;-68
2022/04/25 05:45:29;;;;;;;0.30;0.30;;;10.70;99.90;;;;;;5054158;28;20522;-69
2022/04/25 05:47:57;;;;;;;0.30;0.30;;;10.80;99.90;;;;;;5052702;28;20231;-68
2022/04/25 05:53:08;;;;;;;0.30;0.30;;;11.30;99.90;;;;;;5053820;28;20243;-67
2022/04/25 05:55:34;;;;;;;0.30;0.30;;;11.70;99.90;;;;;;5053806;28;20404;-67
2022/04/25 05:58:04;;;;;;;0.37;0.37;;;11.90;99.90;;;;;;5053724;28;20484;-69
2022/04/25 06:00:30;;;;;;;0.30;0.30;;;12.20;99.80;;;;;;5053619;28;20901;-67
2022/04/25 06:02:57;;;;;;;0.40;0.40;;;12.50;99.30;;;;;;5053754;28;20889;-68
2022/04/25 06:05:24;;;;;;;0.30;0.30;;;13.00;98.40;;;;;;5053804;28;20798;-68
2022/04/25 06:07:50;;;;;;;0.30;0.30;;;14.20;97.50;;;;;;5053854;28;20766;-69
2022/04/25 06:10:20;;;;;;;0.40;0.40;;;15.30;95.90;;;;;;5053563;28;20784;-68
2022/04/25 06:12:48;;;;;;;0.30;0.30;;;16.20;93.80;;;;;;5053627;28;20415;-69
2022/04/25 06:15:16;;;;;;;0.30;0.30;;;16.80;92.30;;;;;;5053830;28;20418;-69
2022/04/25 06:17:42;;;;;;;0.30;0.30;;;17.30;90.80;;;;;;5053646;28;20448;-68
2022/04/25 06:20:09;;;;;;;0.30;0.30;;;17.20;88.50;;;;;;5053199;28;20467;-68
2022/04/25 06:22:36;;;;;;;0.40;0.40;;;16.60;88.60;;;;;;5053416;28;20421;-68
2022/04/25 06:25:04;;;;;;;0.60;0.60;;;15.80;90.00;;;;;;5053444;28;20405;-69
2022/04/25 06:27:29;;;;;;;0.30;0.30;;;15.10;91.30;;;;;;5053452;28;20418;-68
2022/04/25 06:29:56;;;;;;;0.30;0.30;;;14.50;92.00;;;;;;5053313;28;20427;-68
2022/04/25 06:32:23;;;;;;;0.30;0.30;;;14.00;93.10;;;;;;5053427;28;20170;-68
2022/04/25 06:34:48;;;;;;;0.30;0.30;;;13.70;94.10;;;;;;5053274;28;20400;-69
2022/04/25 06:37:15;;;;;;;0.30;0.30;;;13.70;94.70;;;;;;5053468;28;20785;-67
2022/04/25 06:39:41;;;;;;;0.30;0.30;;;13.80;95.40;;;;;;5051852;28;20428;-67
2022/04/25 06:42:09;;;;;;;0.30;0.30;;;14.20;95.40;;;;;;5053225;28;20398;-68
2022/04/25 06:44:36;;;;;;;0.60;0.60;;;14.60;94.60;;;;;;5053378;28;20429;-68
2022/04/25 06:47:01;;;;;;;0.30;0.30;;;14.80;92.90;;;;;;5053341;28;20487;-68
2022/04/25 06:49:27;;;;;;;0.30;0.30;;;14.70;92.80;;;;;;5053107;28;20467;-69
2022/04/25 06:51:59;;;;;;;0.30;0.30;;;14.90;93.00;;;;;;5053026;28;20173;-68
2022/04/25 06:54:26;;;;;;;0.30;0.30;;;15.20;92.60;;;;;;5056840;28;20829;-68
2022/04/25 06:56:53;;;;;;;0.47;0.47;;;15.10;92.10;;;;;;5057106;28;20889;-68
2022/04/25 06:59:20;;;;;;;0.40;0.40;;;15.10;92.10;;;;;;5057222;28;20447;-68
2022/04/25 07:01:48;;;;;;;0.40;0.40;;;14.90;92.40;;;;;;5056941;28;20404;-68
2022/04/25 07:04:14;;;;;;;0.40;0.40;;;14.40;92.60;;;;;;5056995;28;20758;-68
2022/04/25 07:06:41;;;;;;;0.50;0.50;;;13.80;93.50;;;;;;5057018;28;20414;-68
2022/04/25 07:09:07;;;;;;;0.40;0.40;;;13.60;94.70;;;;;;5057090;28;20849;-68
2022/04/25 07:11:33;;;;;;;0.40;0.40;;;13.30;95.10;;;;;;5056973;28;20408;-68
2022/04/25 07:14:02;;;;;;;0.30;0.30;;;13.10;95.60;;;;;;5055695;28;20423;-68
2022/04/25 07:16:28;;;;;;;0.30;0.30;;;12.80;96.10;;;;;;5056758;28;20758;-68
2022/04/25 07:18:55;;;;;;;0.40;0.40;;;12.50;97.00;;;;;;5055305;28;21007;-69
2022/04/25 07:29:33;;;;;;;0.70;0.70;;;11.40;99.90;;;;;;5056473;28;20846;-68
2022/04/25 07:31:59;;;;;;;0.33;0.33;;;11.40;99.90;;;;;;5056423;28;20409;-67
2022/04/25 07:34:25;;;;;;;0.30;0.30;;;11.50;99.90;;;;;;5055316;28;20236;-68
2022/04/25 07:36:53;;;;;;;0.30;0.30;;;11.40;99.90;;;;;;5056553;28;20440;-68
2022/04/25 07:39:22;;;;;;;0.30;0.30;;;11.30;99.90;;;;;;5056697;28;20201;-68
2022/04/25 07:41:50;;;;;;;0.87;0.87;;;11.20;99.90;;;;;;5056114;28;20767;-68
2022/04/25 07:44:16;;;;;;;0.37;0.37;;;11.40;99.90;;;;;;5056333;28;20401;-68
2022/04/25 07:46:42;;;;;;;0.30;0.30;;;11.40;99.90;;;;;;5056445;28;20916;-68
2022/04/25 07:49:09;;;;;;;0.63;0.63;;;11.40;99.90;;;;;;5056227;28;20428;-67
2022/04/25 07:51:40;;;;;;;0.30;0.30;;;11.60;99.90;;;;;;5055921;28;20405;-68
2022/04/25 07:54:08;;;;;;;0.50;0.50;;;11.70;99.90;;;;;;5056512;28;20473;-68
2022/04/25 07:56:35;;;;;;;0.60;0.60;;;11.70;99.90;;;;;;5056082;28;20912;-69
2022/04/25 07:59:01;;;;;;;0.50;0.50;;;11.80;99.90;;;;;;5055869;28;20975;-68
2022/04/25 08:01:27;;;;;;;0.40;0.40;;;11.90;99.90;;;;;;5055932;28;20410;-68
2022/04/25 08:03:56;;;;;;;0.30;0.30;;;12.10;99.90;;;;;;5055885;28;20172;-68
2022/04/25 08:06:22;;;;;;;0.30;0.30;;;12.20;99.30;;;;;;5055588;28;20418;-68
2022/04/25 08:08:49;;;;;;;0.67;0.67;;;12.20;99.10;;;;;;5055931;28;20416;-67
2022/04/25 08:11:16;;;;;;;0.30;0.30;;;12.00;99.10;;;;;;5054379;28;20405;-68
2022/04/25 08:19:10;;;;;;;0.30;0.30;;;12.30;99.70;;;;;;5055440;28;20545;-67
2022/04/25 08:21:39;;;;;;;0.30;0.30;;;12.60;98.90;;;;;;5055332;28;20526;-68
2022/04/25 08:24:04;;;;;;;0.33;0.33;;;12.80;98.50;;;;;;5055845;28;20168;-68
2022/04/25 08:26:30;;;;;;;5.40;1.17;;;12.90;98.10;;;;;;5055562;28;20411;-68
2022/04/25 08:28:56;;;;;;;0.50;0.50;;;13.10;97.90;;;;;;5055512;28;20196;-68
2022/04/25 08:31:22;;;;;;;4.33;1.03;;;13.20;97.00;;;;;;5055212;28;20176;-67
2022/04/25 08:33:48;;;;;;;0.30;0.30;;;13.10;96.80;;;;;;5055358;28;20182;-67
2022/04/25 08:36:16;;;;;;;0.43;0.43;;;12.90;97.10;;;;;;5055261;28;20173;-67
2022/04/25 08:38:43;;;;;;;0.40;0.40;;;12.80;97.40;;;;;;5053882;28;20990;-68
2022/04/25 08:41:10;;;;;;;0.90;0.90;;;12.60;97.20;;;;;;5055094;28;20413;-68
2022/04/25 08:43:38;;;;;;;0.63;0.63;;;12.30;97.80;;;;;;5055276;28;20436;-68
2022/04/25 08:46:07;;;;;;;0.30;0.30;;;12.10;98.50;;;;;;5053805;28;20901;-67
2022/04/25 08:48:34;;;;;;;0.30;0.30;;;12.00;99.10;;;;;;5055014;28;20409;-68
2022/04/25 08:51:00;;;;;;;0.30;0.30;;;11.90;99.80;;;;;;5054942;28;20865;-67
2022/04/25 08:53:27;;;;;;;0.50;0.50;;;11.80;99.90;;;;;;5055110;28;20405;-68
2022/04/25 08:55:54;;;;;;;0.30;0.30;;;11.90;99.90;;;;;;5055051;28;20496;-68
2022/04/25 08:58:22;;;;;;;0.40;0.40;;;11.70;99.90;;;;;;5054959;28;20452;-68
2022/04/25 09:00:47;;;;;;;0.30;0.30;;;11.70;99.90;;;;;;5054597;28;20435;-68
2022/04/25 09:03:14;;;;;;;0.30;0.30;;;11.60;99.90;;;;;;5053513;28;20170;-67
2022/04/25 09:05:40;;;;;;;1.00;1.00;;;11.50;99.90;;;;;;5054817;28;20436;-68
2022/04/25 09:08:07;;;;;;;0.30;0.30;;;11.40;99.90;;;;;;5054898;28;20202;-68
2022/04/25 09:10:33;;;;;;;0.30;0.30;;;11.40;99.90;;;;;;5054450;28;20506;-67
2022/04/25 09:13:00;;;;;;;0.30;0.30;;;11.40;99.90;;;;;;5054739;28;20170;-68
2022/04/25 09:15:25;;;;;;;0.40;0.40;;;11.20;99.90;;;;;;5053140;28;20466;-68
2022/04/25 09:17:54;;;;;;;0.83;0.83;;;11.30;99.90;;;;;;5053621;28;20206;-69
2022/04/25 09:20:21;;;;;;;0.57;0.57;;;11.20;99.90;;;;;;5054203;28;20214;-68
2022/04/25 09:22:47;;;;;;;0.30;0.30;;;11.10;99.90;;;;;;5054465;28;20598;-68
2022/04/25 09:25:17;;;;;;;0.30;0.30;;;11.00;99.80;;;;;;5054238;28;20209;-68
2022/04/25 09:27:44;;;;;;;0.30;0.30;;;11.00;99.90;;;;;;5054353;28;20174;-68
2022/04/25 09:30:20;;;;;;;0.30;0.30;;;10.80;98.70;;;;;;5054030;28;20190;-68
2022/04/25 09:32:47;;;;;;;0.30;0.30;;;10.60;99.00;;;;;;5054547;28;20179;-68
2022/04/25 09:35:29;;;;;;;0.30;0.30;;;10.50;99.40;;;;;;5054311;28;20174;-67
2022/04/25 09:38:01;;;;;;;0.30;0.30;;;10.40;99.90;;;;;;5053988;28;20569;-68
2022/04/25 09:40:29;;;;;;;0.30;0.30;;;10.30;99.90;;;;;;5054141;28;20659;-69
2022/04/25 09:43:29;;;;;;;0.30;0.30;;;10.20;99.90;;;;;;5054264;28;20170;-68
2022/04/25 09:46:09;;;;;;;0.30;0.30;;;10.10;99.90;;;;;;5052925;28;20714;-68
2022/04/25 09:48:36;;;;;;;0.30;0.30;;;10.20;99.90;;;;;;5053963;28;20197;-68
2022/04/25 09:51:10;;;;;;;0.30;0.30;;;10.20;99.90;;;;;;5053845;28;20170;-68
2022/04/25 09:53:47;;;;;;;0.30;0.30;;;10.40;99.90;;;;;;5054025;28;20170;-68
2022/04/25 09:56:16;;;;;;;0.30;0.30;;;10.40;99.90;;;;;;5052801;28;20239;-68
2022/04/25 09:58:44;;;;;;;0.88;0.88;;;10.50;99.90;;;;;;5053901;28;20198;-68
2022/04/25 10:01:14;;;;;;;0.30;0.30;;;10.70;99.90;;;;;;5053610;28;20177;-68
2022/04/25 10:03:41;;;;;;;0.30;0.30;;;11.10;99.90;;;;;;5053911;28;20173;-67
2022/04/25 10:06:08;;;;;;;0.30;0.30;;;11.30;99.20;;;;;;5053861;28;20174;-69
2022/04/25 10:08:36;;;;;;;0.30;0.30;;;11.50;99.00;;;;;;5053669;28;20174;-68
2022/04/25 10:11:03;;;;;;;0.30;0.30;;;11.80;99.60;;;;;;5053424;28;20405;-68
2022/04/25 10:13:33;;;;;;;0.30;0.30;;;11.90;98.30;;;;;;5053515;28;20403;-69
2022/04/25 10:16:00;;;;;;;0.30;0.30;;;12.10;98.10;;;;;;5053595;28;20404;-69
2022/04/25 10:18:26;;;;;;;0.30;0.30;;;12.10;97.60;;;;;;5053658;28;20454;-68
2022/04/25 10:20:52;;;;;;;0.30;0.30;;;12.20;97.50;;;;;;5053227;28;20438;-68
2022/04/25 10:23:18;;;;;;;0.30;0.30;;;12.30;97.20;;;;;;5053634;28;20408;-68
2022/04/25 10:25:51;;;;;;;0.37;0.37;;;12.60;97.40;;;;;;5053577;28;20444;-68
2022/04/25 10:28:25;;;;;;;0.30;0.30;;;12.90;96.50;;;;;;5053032;28;20415;-68
2022/04/25 10:30:51;;;;;;;0.30;0.30;;;13.10;95.90;;;;;;5051841;28;20982;-68
2022/04/25 10:33:21;;;;;;;0.57;0.57;;;13.20;95.90;;;;;;5053401;28;20462;-68
2022/04/25 10:35:52;;;;;;;0.30;0.30;;;13.30;95.40;;;;;;5053493;28;20411;-69
2022/04/25 10:38:47;;;;;;;0.40;0.40;;;13.50;95.70;;;;;;5052137;28;20456;-69
2022/04/25 10:44:17;;;;;;;0.30;0.30;;;13.40;95.10;;;;;;5053585;28;20408;-68
2022/04/25 10:47:13;;;;;;;0.30;0.30;;;13.70;95.10;;;;;;5053394;28;20401;-68
2022/04/25 10:49:47;;;;;;;0.30;0.30;;;13.80;95.20;;;;;;5053105;28;20416;-69
2022/04/25 10:52:31;;;;;;;0.30;0.30;;;13.80;95.00;;;;;;5053484;28;20465;-68
2022/04/25 10:55:30;;;;;;;0.30;0.30;;;14.00;95.20;;;;;;5053081;28;20396;-68
2022/04/25 10:58:01;;;;;;;0.30;0.30;;;14.30;95.10;;;;;;5051888;28;20965;-68
2022/04/25 11:00:36;;;;;;;0.30;0.30;;;14.30;93.10;;;;;;5051635;28;20446;-69
2022/04/25 11:03:12;;;;;;;0.30;0.30;;;14.40;93.60;;;;;;5053263;28;20759;-68
2022/04/25 11:05:40;;;;;;;0.30;0.30;;;14.40;94.60;;;;;;5053298;28;20400;-68
2022/04/25 11:08:22;;;;;;;0.93;0.93;;;14.30;94.00;;;;;;5053084;28;20462;-68
2022/04/25 11:10:48;;;;;;;1.00;1.00;;;14.10;92.40;;;;;;5052778;28;20509;-68
2022/04/25 11:13:16;;;;;;;0.40;0.40;;;14.20;92.50;;;;;;5053057;28;20839;-69
2022/04/25 11:15:47;;;;;;;2.33;1.17;;;14.20;92.50;;;;;;5053116;28;20409;-68
2022/04/25 11:18:35;;;;;;;0.30;0.30;;;14.50;93.50;;;;;;5052847;28;20463;-68
2022/04/25 11:21:07;;;;;;;0.30;0.30;;;14.50;93.00;;;;;;5052712;28;20452;-68
2022/04/25 11:23:47;;;;;;;0.30;0.30;;;14.50;92.90;;;;;;5053040;28;20408;-68
2022/04/25 11:26:22;;;;;;;0.30;0.30;;;14.40;94.10;;;;;;5053067;28;20409;-68
2022/04/25 11:29:08;;;;;;;0.30;0.30;;;14.40;94.20;;;;;;5052733;28;20408;-69
2022/04/25 11:31:38;;;;;;;0.30;0.30;;;14.20;94.60;;;;;;5052919;28;20760;-68
2022/04/25 11:34:07;;;;;;;0.30;0.30;;;14.00;95.00;;;;;;5052771;28;20404;-69
2022/04/25 11:36:43;;;;;;;0.30;0.30;;;13.70;95.10;;;;;;5052926;28;20766;-69
2022/04/25 11:41:57;;;;;;;0.30;0.30;;;13.10;96.20;;;;;;5056386;28;20825;-68
2022/04/25 11:44:23;;;;;;;0.60;0.60;;;12.90;96.40;;;;;;5056517;28;20943;-69
2022/04/25 11:46:50;;;;;;;0.30;0.30;;;12.60;97.70;;;;;;5056253;28;20431;-68
2022/04/25 11:49:39;;;;;;;0.30;0.30;;;12.80;97.10;;;;;;5054900;28;20270;-68
2022/04/25 11:52:06;;;;;;;0.50;0.50;;;13.00;97.40;;;;;;5054889;28;20423;-68
2022/04/25 11:54:32;;;;;;;0.40;0.40;;;13.10;96.90;;;;;;5056219;28;20413;-68
2022/04/25 11:57:02;;;;;;;0.40;0.40;;;13.40;96.60;;;;;;5056232;28;20445;-68
2022/04/25 11:59:28;;;;;;;0.63;0.60;;;13.60;95.90;;;;;;5056176;28;20429;-68
2022/04/25 12:01:55;;;;;;;0.30;0.30;;;13.80;95.30;;;;;;5055846;28;20400;-68
2022/04/25 12:04:27;;;;;;;0.30;0.30;;;13.80;95.80;;;;;;5055933;28;20890;-69
2022/04/25 12:06:59;;;;;;;0.53;0.53;;;13.60;95.10;;;;;;5056112;28;20388;-68
2022/04/25 12:17:45;;;;;;;0.30;0.30;;;14.90;93.40;;;;;;5055892;28;20485;-69
2022/04/25 12:20:16;;;;;;;0.30;0.30;;;14.80;93.10;;;;;;5055582;28;20425;-68
2022/04/25 12:22:53;;;;;;;0.40;0.40;;;14.60;93.70;;;;;;5055566;28;20439;-68
2022/04/25 12:25:22;;;;;;;0.30;0.30;;;14.60;93.70;;;;;;5055771;28;20405;-68
2022/04/25 12:28:23;;;;;;;0.30;0.30;;;14.60;94.30;;;;;;5055588;28;20416;-68
2022/04/25 12:30:57;;;;;;;0.30;0.30;;;14.70;94.10;;;;;;5033462;28;20440;-68
2022/04/25 12:33:24;;;;;;;0.40;0.40;;;14.80;94.10;;;;;;5055432;28;20431;-68
2022/04/25 12:36:18;;;;;;;0.30;0.30;;;14.70;93.60;;;;;;5055463;28;20452;-68
2022/04/25 12:38:50;;;;;;;0.40;0.40;;;14.50;92.30;;;;;;5055468;28;20449;-69
2022/04/25 12:41:22;;;;;;;0.30;0.30;;;14.30;93.10;;;;;;5055055;28;20434;-68
2022/04/25 12:43:50;;;;;;;0.40;0.40;;;14.30;93.20;;;;;;5055259;28;20400;-69
2022/04/25 12:46:18;;;;;;;0.40;0.40;;;14.40;93.70;;;;;;5055218;28;20407;-68
2022/04/25 12:49:03;;;;;;;0.30;0.30;;;14.70;92.60;;;;;;5055168;28;20400;-68
2022/04/25 12:51:51;;;;;;;0.30;0.30;;;14.50;92.30;;;;;;5054662;28;20412;-68
2022/04/25 12:54:37;;;;;;;0.30;0.30;;;14.50;92.30;;;;;;5055224;28;20804;-68
2022/04/25 12:57:23;;;;;;;1.80;1.33;;;14.70;92.10;;;;;;5055215;28;20403;-68
2022/04/25 12:59:51;;;;;;;0.30;0.30;;;14.80;92.00;;;;;;5054727;28;20460;-69
2022/04/25 13:02:35;;;;;;;0.40;0.40;;;14.60;92.00;;;;;;5055585;28;20403;-68
2022/04/25 13:05:03;;;;;;;0.30;0.30;;;14.40;92.20;;;;;;5055211;28;20397;-68
2022/04/25 13:07:40;;;;;;;0.30;0.30;;;14.20;92.00;;;;;;5054871;28;20803;-69
2022/04/25 13:10:10;;;;;;;0.30;0.30;;;14.00;92.20;;;;;;5054438;28;20432;-68
2022/04/25 13:12:40;;;;;;;0.50;0.50;;;14.00;92.70;;;;;;5054561;28;20415;-68
2022/04/25 13:15:19;;;;;;;0.40;0.40;;;14.20;93.10;;;;;;5054612;28;20484;-68
2022/04/25 13:17:45;;;;;;;0.30;0.30;;;14.20;92.10;;;;;;5054621;28;20501;-69
2022/04/25 13:20:13;;;;;;;0.30;0.30;;;14.00;92.40;;;;;;5054519;28;20817;-69
2022/04/25 13:22:39;;;;;;;0.60;0.60;;;14.10;91.80;;;;;;5054525;28;20504;-68
2022/04/25 13:25:06;;;;;;;0.67;0.67;;;14.20;91.80;;;;;;5054575;28;20401;-68
2022/04/25 13:27:34;;;;;;;2.77;2.63;;;14.20;91.70;;;;;;5054434;28;20943;-68
2022/04/25 13:30:00;;;;;;;0.30;0.30;;;14.20;91.70;;;;;;5054267;28;20459;-69
2022/04/25 13:32:26;;;;;;;0.30;0.30;;;14.20;91.30;;;;;;5054366;28;20779;-68
2022/04/25 13:34:52;;;;;;;0.30;0.30;;;14.20;90.90;;;;;;5054481;28;20413;-69